sensor_id;sensor_type;location;lat;lon;timestamp;pressure;altitude;pressure_sealevel;temperature;humidity
33280;BME280;20403;43.114;12.434;2023-05-03T00:01:18;98864.56;;;15.24;100.00
33280;BME280;20403;43.114;12.434;2023-05-03T00:03:43;98868.25;;;15.18;100.00
33280;BME280;20403;43.114;12.434;2023-05-03T00:06:13;98864.81;;;15.18;100.00
33280;BME280;20403;43.114;12.434;2023-05-03T00:08:39;98857.69;;;15.03;100.00
33280;BME280;20403;43.114;12.434;2023-05-03T00:11:05;98859.00;;;15.05;100.00
33280;BME280;20403;43.114;12.434;2023-05-03T00:13:31;98847.44;;;15.06;100.00
33280;BME280;20403;43.114;12.434;2023-05-03T00:15:56;98852.44;;;15.08;100.00
33280;BME280;20403;43.114;12.434;2023-05-03T00:18:22;98856.16;;;15.22;100.00
33280;BME280;20403;43.114;12.434;2023-05-03T00:20:48;98857.53;;;15.45;100.00
33280;BME280;20403;43.114;12.434;2023-05-03T00:23:14;98857.34;;;15.62;100.00
33280;BME280;20403;43.114;12.434;2023-05-03T00:25:40;98850.22;;;15.68;100.00
33280;BME280;20403;43.114;12.434;2023-05-03T00:28:05;98852.63;;;15.74;100.00
33280;BME280;20403;43.114;12.434;2023-05-03T00:30:30;98846.06;;;15.87;100.00
33280;BME280;20403;43.114;12.434;2023-05-03T00:32:56;98846.88;;;15.93;100.00
33280;BME280;20403;43.114;12.434;2023-05-03T00:35:21;98843.19;;;15.99;100.00
33280;BME280;20403;43.114;12.434;2023-05-03T00:37:47;98846.06;;;16.03;100.00
33280;BME280;20403;43.114;12.434;2023-05-03T00:40:12;98846.88;;;16.08;100.00
33280;BME280;20403;43.114;12.434;2023-05-03T00:42:43;98845.03;;;16.14;100.00
33280;BME280;20403;43.114;12.434;2023-05-03T00:45:08;98852.41;;;16.22;100.00
33280;BME280;20403;43.114;12.434;2023-05-03T00:47:35;98855.81;;;16.23;100.00
33280;BME280;20403;43.114;12.434;2023-05-03T00:50:00;98858.69;;;16.21;100.00
33280;BME280;20403;43.114;12.434;2023-05-03T00:52:26;98852.13;;;16.24;100.00
33280;BME280;20403;43.114;12.434;2023-05-03T00:54:52;98853.72;;;16.25;100.00
33280;BME280;20403;43.114;12.434;2023-05-03T00:57:18;98847.66;;;16.34;100.00
33280;BME280;20403;43.114;12.434;2023-05-03T00:59:45;98846.84;;;16.34;100.00
33280;BME280;20403;43.114;12.434;2023-05-03T01:02:11;98860.03;;;16.18;100.00
33280;BME280;20403;43.114;12.434;2023-05-03T01:04:37;98852.66;;;16.21;100.00
33280;BME280;20403;43.114;12.434;2023-05-03T01:10:25;98861.59;;;16.20;100.00
33280;BME280;20403;43.114;12.434;2023-05-03T01:13:03;98864.75;;;16.16;100.00
33280;BME280;20403;43.114;12.434;2023-05-03T01:18:06;98867.38;;;16.16;100.00
33280;BME280;20403;43.114;12.434;2023-05-03T01:20:33;98873.44;;;16.12;100.00
33280;BME280;20403;43.114;12.434;2023-05-03T01:23:06;98875.81;;;16.13;100.00
33280;BME280;20403;43.114;12.434;2023-05-03T01:25:34;98860.03;;;16.18;100.00
33280;BME280;20403;43.114;12.434;2023-05-03T01:28:00;98861.88;;;16.13;100.00
33280;BME280;20403;43.114;12.434;2023-05-03T01:30:26;98861.06;;;16.07;100.00
33280;BME280;20403;43.114;12.434;2023-05-03T01:32:59;98866.34;;;16.02;100.00
33280;BME280;20403;43.114;12.434;2023-05-03T01:35:44;98870.78;;;15.96;100.00
33280;BME280;20403;43.114;12.434;2023-05-03T01:38:12;98870.28;;;16.00;100.00
33280;BME280;20403;43.114;12.434;2023-05-03T01:40:44;98865.03;;;15.94;100.00
33280;BME280;20403;43.114;12.434;2023-05-03T01:43:12;98868.69;;;15.93;100.00
33280;BME280;20403;43.114;12.434;2023-05-03T01:45:40;98870.53;;;15.93;100.00
33280;BME280;20403;43.114;12.434;2023-05-03T01:48:10;98863.97;;;15.95;100.00
33280;BME280;20403;43.114;12.434;2023-05-03T01:50:36;98866.06;;;15.93;100.00
33280;BME280;20403;43.114;12.434;2023-05-03T01:53:01;98870.00;;;15.96;100.00
33280;BME280;20403;43.114;12.434;2023-05-03T01:55:27;98873.94;;;15.93;100.00
33280;BME280;20403;43.114;12.434;2023-05-03T01:57:52;98880.53;;;16.01;100.00
33280;BME280;20403;43.114;12.434;2023-05-03T02:00:18;98874.47;;;16.01;100.00
33280;BME280;20403;43.114;12.434;2023-05-03T02:02:43;98877.63;;;16.03;100.00
33280;BME280;20403;43.114;12.434;2023-05-03T02:05:09;98871.59;;;16.02;100.00
33280;BME280;20403;43.114;12.434;2023-05-03T02:07:35;98880.00;;;16.04;100.00
33280;BME280;20403;43.114;12.434;2023-05-03T02:10:00;98877.38;;;15.99;100.00
33280;BME280;20403;43.114;12.434;2023-05-03T02:12:25;98871.59;;;16.02;100.00
33280;BME280;20403;43.114;12.434;2023-05-03T02:14:51;98875.78;;;16.03;100.00
33280;BME280;20403;43.114;12.434;2023-05-03T02:17:16;98876.84;;;16.07;100.00
33280;BME280;20403;43.114;12.434;2023-05-03T02:19:43;98875.78;;;15.98;100.00
33280;BME280;20403;43.114;12.434;2023-05-03T02:22:08;98872.91;;;15.94;100.00
33280;BME280;20403;43.114;12.434;2023-05-03T02:24:34;98865.53;;;15.91;100.00
33280;BME280;20403;43.114;12.434;2023-05-03T02:27:01;98871.06;;;15.90;100.00
33280;BME280;20403;43.114;12.434;2023-05-03T02:29:29;98877.91;;;15.86;100.00
33280;BME280;20403;43.114;12.434;2023-05-03T02:31:55;98865.28;;;15.88;100.00
33280;BME280;20403;43.114;12.434;2023-05-03T02:34:20;98866.06;;;15.88;100.00
33280;BME280;20403;43.114;12.434;2023-05-03T02:36:46;98868.94;;;15.92;100.00
33280;BME280;20403;43.114;12.434;2023-05-03T02:39:11;98874.47;;;15.90;100.00
33280;BME280;20403;43.114;12.434;2023-05-03T02:41:37;98868.94;;;15.92;100.00
33280;BME280;20403;43.114;12.434;2023-05-03T02:44:02;98877.38;;;15.94;100.00
33280;BME280;20403;43.114;12.434;2023-05-03T02:46:28;98872.09;;;15.94;100.00
33280;BME280;20403;43.114;12.434;2023-05-03T02:48:53;98886.56;;;15.96;100.00
33280;BME280;20403;43.114;12.434;2023-05-03T02:51:18;98875.78;;;15.98;100.00
33280;BME280;20403;43.114;12.434;2023-05-03T02:53:44;98873.16;;;16.03;100.00
33280;BME280;20403;43.114;12.434;2023-05-03T02:56:10;98877.66;;;15.98;100.00
33280;BME280;20403;43.114;12.434;2023-05-03T02:58:35;98878.69;;;15.91;100.00
33280;BME280;20403;43.114;12.434;2023-05-03T03:01:01;98885.25;;;15.89;100.00
33280;BME280;20403;43.114;12.434;2023-05-03T03:03:26;98881.31;;;15.91;100.00
33280;BME280;20403;43.114;12.434;2023-05-03T03:05:51;98883.41;;;15.89;100.00
33280;BME280;20403;43.114;12.434;2023-05-03T03:08:17;98880.00;;;15.89;100.00
33280;BME280;20403;43.114;12.434;2023-05-03T03:10:42;98890.50;;;15.89;100.00
33280;BME280;20403;43.114;12.434;2023-05-03T03:13:08;98888.16;;;15.92;100.00
33280;BME280;20403;43.114;12.434;2023-05-03T03:15:33;98901.28;;;15.87;100.00
33280;BME280;20403;43.114;12.434;2023-05-03T03:17:59;98898.41;;;15.84;100.00
33280;BME280;20403;43.114;12.434;2023-05-03T03:20:25;98907.84;;;15.85;100.00
33280;BME280;20403;43.114;12.434;2023-05-03T03:22:50;98904.44;;;15.84;100.00
33280;BME280;20403;43.114;12.434;2023-05-03T03:25:15;98901.03;;;15.84;100.00
33280;BME280;20403;43.114;12.434;2023-05-03T03:27:41;98889.97;;;15.82;100.00
33280;BME280;20403;43.114;12.434;2023-05-03T03:30:07;98910.22;;;15.81;100.00
33280;BME280;20403;43.114;12.434;2023-05-03T03:32:33;98905.47;;;15.78;100.00
33280;BME280;20403;43.114;12.434;2023-05-03T03:34:59;98907.84;;;15.85;100.00
33280;BME280;20403;43.114;12.434;2023-05-03T03:37:24;98909.44;;;15.86;100.00
33280;BME280;20403;43.114;12.434;2023-05-03T03:39:50;98909.19;;;15.92;100.00
33280;BME280;20403;43.114;12.434;2023-05-03T03:42:15;98909.72;;;15.94;100.00
33280;BME280;20403;43.114;12.434;2023-05-03T03:44:41;98917.63;;;15.94;100.00
33280;BME280;20403;43.114;12.434;2023-05-03T03:47:06;98906.28;;;15.89;100.00
33280;BME280;20403;43.114;12.434;2023-05-03T03:49:32;98915.25;;;15.93;100.00
33280;BME280;20403;43.114;12.434;2023-05-03T03:51:57;98912.63;;;15.93;100.00
33280;BME280;20403;43.114;12.434;2023-05-03T03:54:22;98919.44;;;15.94;100.00
33280;BME280;20403;43.114;12.434;2023-05-03T03:56:48;98912.38;;;15.94;100.00
33280;BME280;20403;43.114;12.434;2023-05-03T03:59:15;98921.56;;;16.02;100.00
33280;BME280;20403;43.114;12.434;2023-05-03T04:01:40;98927.88;;;16.01;100.00
33280;BME280;20403;43.114;12.434;2023-05-03T04:04:06;98929.47;;;16.02;100.00
33280;BME280;20403;43.114;12.434;2023-05-03T04:06:31;98928.69;;;16.02;100.00
33280;BME280;20403;43.114;12.434;2023-05-03T04:08:57;98941.81;;;16.02;100.00
33280;BME280;20403;43.114;12.434;2023-05-03T04:11:22;98938.38;;;16.01;100.00
33280;BME280;20403;43.114;12.434;2023-05-03T04:13:48;98942.34;;;16.04;100.00
33280;BME280;20403;43.114;12.434;2023-05-03T04:16:13;98953.91;;;16.08;100.00
33280;BME280;20403;43.114;12.434;2023-05-03T04:18:39;98948.13;;;16.06;100.00
33280;BME280;20403;43.114;12.434;2023-05-03T04:21:05;98962.88;;;16.02;100.00
33280;BME280;20403;43.114;12.434;2023-05-03T04:23:30;98968.13;;;16.02;100.00
33280;BME280;20403;43.114;12.434;2023-05-03T04:25:56;98968.13;;;16.02;100.00
33280;BME280;20403;43.114;12.434;2023-05-03T04:28:22;98960.50;;;16.05;100.00
33280;BME280;20403;43.114;12.434;2023-05-03T04:30:47;98977.84;;;15.96;100.00
33280;BME280;20403;43.114;12.434;2023-05-03T04:33:13;98984.44;;;16.04;100.00
33280;BME280;20403;43.114;12.434;2023-05-03T04:35:39;98980.75;;;16.05;100.00
33280;BME280;20403;43.114;12.434;2023-05-03T04:38:05;98992.84;;;16.06;100.00
33280;BME280;20403;43.114;12.434;2023-05-03T04:40:31;98998.91;;;16.06;100.00
33280;BME280;20403;43.114;12.434;2023-05-03T04:42:56;98996.81;;;16.08;100.00
33280;BME280;20403;43.114;12.434;2023-05-03T04:45:22;99001.53;;;16.11;100.00
33280;BME280;20403;43.114;12.434;2023-05-03T04:47:48;99003.63;;;16.09;100.00
33280;BME280;20403;43.114;12.434;2023-05-03T04:50:14;99002.84;;;16.09;100.00
33280;BME280;20403;43.114;12.434;2023-05-03T04:52:39;99014.16;;;16.09;100.00
33280;BME280;20403;43.114;12.434;2023-05-03T04:55:05;99015.22;;;16.13;100.00
33280;BME280;20403;43.114;12.434;2023-05-03T04:57:32;99015.50;;;16.17;100.00
33280;BME280;20403;43.114;12.434;2023-05-03T04:59:58;99022.59;;;16.16;100.00
33280;BME280;20403;43.114;12.434;2023-05-03T05:02:23;99027.59;;;16.18;100.00
33280;BME280;20403;43.114;12.434;2023-05-03T05:04:48;99028.38;;;16.18;100.00
33280;BME280;20403;43.114;12.434;2023-05-03T05:07:14;99035.75;;;16.16;100.00
33280;BME280;20403;43.114;12.434;2023-05-03T05:09:39;99046.25;;;16.06;100.00
33280;BME280;20403;43.114;12.434;2023-05-03T05:12:05;99044.16;;;16.08;100.00
33280;BME280;20403;43.114;12.434;2023-05-03T05:14:31;99038.63;;;16.15;100.00
33280;BME280;20403;43.114;12.434;2023-05-03T05:16:57;99056.00;;;16.11;100.00
33280;BME280;20403;43.114;12.434;2023-05-03T05:19:23;99048.38;;;16.14;100.00
33280;BME280;20403;43.114;12.434;2023-05-03T05:21:50;99051.00;;;16.14;100.00
33280;BME280;20403;43.114;12.434;2023-05-03T05:24:16;99055.22;;;16.21;100.00
33280;BME280;20403;43.114;12.434;2023-05-03T05:26:42;99055.00;;;16.22;100.00
33280;BME280;20403;43.114;12.434;2023-05-03T05:29:08;99051.03;;;16.25;100.00
33280;BME280;20403;43.114;12.434;2023-05-03T05:31:33;99054.72;;;16.29;100.00
33280;BME280;20403;43.114;12.434;2023-05-03T05:33:59;99057.34;;;16.29;100.00
33280;BME280;20403;43.114;12.434;2023-05-03T05:36:25;99048.66;;;16.33;100.00
33280;BME280;20403;43.114;12.434;2023-05-03T05:38:51;99055.78;;;16.38;100.00
33280;BME280;20403;43.114;12.434;2023-05-03T05:41:16;99060.78;;;16.39;100.00
33280;BME280;20403;43.114;12.434;2023-05-03T05:43:42;99057.63;;;16.37;100.00
33280;BME280;20403;43.114;12.434;2023-05-03T05:46:09;99062.91;;;16.37;100.00
33280;BME280;20403;43.114;12.434;2023-05-03T05:48:34;99062.13;;;16.47;100.00
33280;BME280;20403;43.114;12.434;2023-05-03T05:51:00;99068.72;;;16.50;100.00
33280;BME280;20403;43.114;12.434;2023-05-03T05:53:26;99073.19;;;16.44;100.00
33280;BME280;20403;43.114;12.434;2023-05-03T05:55:51;99073.47;;;16.53;100.00
33280;BME280;20403;43.114;12.434;2023-05-03T05:58:16;99080.03;;;16.55;100.00
33280;BME280;20403;43.114;12.434;2023-05-03T06:00:42;99074.53;;;16.62;100.00
33280;BME280;20403;43.114;12.434;2023-05-03T06:03:08;99085.84;;;16.68;100.00
33280;BME280;20403;43.114;12.434;2023-05-03T06:05:33;99101.63;;;16.63;100.00
33280;BME280;20403;43.114;12.434;2023-05-03T06:07:59;99093.22;;;16.60;100.00
33280;BME280;20403;43.114;12.434;2023-05-03T06:10:24;99093.50;;;16.64;100.00
33280;BME280;20403;43.114;12.434;2023-05-03T06:12:50;99097.19;;;16.68;100.00
33280;BME280;20403;43.114;12.434;2023-05-03T06:15:15;99099.28;;;16.71;100.00
33280;BME280;20403;43.114;12.434;2023-05-03T06:17:41;99106.44;;;16.81;100.00
33280;BME280;20403;43.114;12.434;2023-05-03T06:20:07;99112.75;;;16.80;100.00
33280;BME280;20403;43.114;12.434;2023-05-03T06:22:36;99111.16;;;16.84;100.00
33280;BME280;20403;43.114;12.434;2023-05-03T06:25:01;99115.09;;;16.76;100.00
33280;BME280;20403;43.114;12.434;2023-05-03T06:27:27;99123.81;;;16.82;100.00
33280;BME280;20403;43.114;12.434;2023-05-03T06:29:53;99124.88;;;16.86;100.00
33280;BME280;20403;43.114;12.434;2023-05-03T06:32:18;99130.94;;;16.92;100.00
33280;BME280;20403;43.114;12.434;2023-05-03T06:34:44;99129.09;;;16.97;100.00
33280;BME280;20403;43.114;12.434;2023-05-03T06:37:09;99132.50;;;16.93;100.00
33280;BME280;20403;43.114;12.434;2023-05-03T06:39:35;99130.16;;;16.96;100.00
33280;BME280;20403;43.114;12.434;2023-05-03T06:42:00;99134.38;;;16.97;100.00
33280;BME280;20403;43.114;12.434;2023-05-03T06:44:26;99137.53;;;16.99;100.00
33280;BME280;20403;43.114;12.434;2023-05-03T06:46:52;99138.59;;;17.09;100.00
33280;BME280;20403;43.114;12.434;2023-05-03T06:49:17;99142.53;;;17.11;100.00
33280;BME280;20403;43.114;12.434;2023-05-03T06:51:42;99148.84;;;17.26;100.00
33280;BME280;20403;43.114;12.434;2023-05-03T06:54:08;99148.06;;;17.30;100.00
33280;BME280;20403;43.114;12.434;2023-05-03T06:56:37;99145.69;;;17.39;100.00
33280;BME280;20403;43.114;12.434;2023-05-03T06:59:03;99151.78;;;17.45;100.00
33280;BME280;20403;43.114;12.434;2023-05-03T07:01:31;99153.31;;;17.56;100.00
33280;BME280;20403;43.114;12.434;2023-05-03T07:03:57;99153.84;;;17.58;100.00
33280;BME280;20403;43.114;12.434;2023-05-03T07:06:22;99155.94;;;17.71;100.00
33280;BME280;20403;43.114;12.434;2023-05-03T07:08:52;99155.69;;;17.73;100.00
33280;BME280;20403;43.114;12.434;2023-05-03T07:11:19;99160.66;;;17.90;100.00
33280;BME280;20403;43.114;12.434;2023-05-03T07:13:51;99155.34;;;18.05;100.00
33280;BME280;20403;43.114;12.434;2023-05-03T07:16:17;99150.28;;;18.14;100.00
33280;BME280;20403;43.114;12.434;2023-05-03T07:18:43;99151.84;;;18.25;100.00
33280;BME280;20403;43.114;12.434;2023-05-03T07:21:09;99147.84;;;18.33;100.00
33280;BME280;20403;43.114;12.434;2023-05-03T07:23:34;99158.66;;;18.36;100.00
33280;BME280;20403;43.114;12.434;2023-05-03T07:26:00;99161.25;;;18.46;100.00
33280;BME280;20403;43.114;12.434;2023-05-03T07:28:26;99166.38;;;18.22;100.00
33280;BME280;20403;43.114;12.434;2023-05-03T07:30:51;99177.78;;;18.08;100.00
33280;BME280;20403;43.114;12.434;2023-05-03T07:33:17;99173.59;;;17.91;100.00
33280;BME280;20403;43.114;12.434;2023-05-03T07:35:45;99173.59;;;17.86;100.00
33280;BME280;20403;43.114;12.434;2023-05-03T07:38:10;99177.28;;;17.80;100.00
33280;BME280;20403;43.114;12.434;2023-05-03T07:40:36;99175.69;;;17.79;100.00
33280;BME280;20403;43.114;12.434;2023-05-03T07:43:02;99174.13;;;17.78;100.00
33280;BME280;20403;43.114;12.434;2023-05-03T07:45:27;99172.78;;;17.80;100.00
33280;BME280;20403;43.114;12.434;2023-05-03T07:47:54;99178.06;;;17.80;100.00
33280;BME280;20403;43.114;12.434;2023-05-03T07:50:19;99169.09;;;17.76;100.00
33280;BME280;20403;43.114;12.434;2023-05-03T07:52:45;99172.31;;;17.68;100.00
33280;BME280;20403;43.114;12.434;2023-05-03T07:55:10;99184.69;;;17.62;100.00
33280;BME280;20403;43.114;12.434;2023-05-03T07:57:36;99182.34;;;17.61;100.00
33280;BME280;20403;43.114;12.434;2023-05-03T08:00:02;99191.81;;;17.62;100.00
33280;BME280;20403;43.114;12.434;2023-05-03T08:02:29;99189.44;;;17.60;100.00
33280;BME280;20403;43.114;12.434;2023-05-03T08:04:55;99185.75;;;17.56;100.00
33280;BME280;20403;43.114;12.434;2023-05-03T08:07:20;99191.56;;;17.58;100.00
33280;BME280;20403;43.114;12.434;2023-05-03T08:09:46;99192.88;;;17.61;100.00
33280;BME280;20403;43.114;12.434;2023-05-03T08:12:13;99189.44;;;17.60;100.00
33280;BME280;20403;43.114;12.434;2023-05-03T08:14:38;99187.06;;;17.59;100.00
33280;BME280;20403;43.114;12.434;2023-05-03T08:17:04;99194.97;;;17.69;100.00
33280;BME280;20403;43.114;12.434;2023-05-03T08:19:30;99188.38;;;17.77;100.00
33280;BME280;20403;43.114;12.434;2023-05-03T08:21:55;99188.09;;;17.83;100.00
33280;BME280;20403;43.114;12.434;2023-05-03T08:24:21;99188.41;;;17.82;100.00
33280;BME280;20403;43.114;12.434;2023-05-03T08:26:47;99195.53;;;17.81;100.00
33280;BME280;20403;43.114;12.434;2023-05-03T08:29:15;99205.78;;;17.78;100.00
33280;BME280;20403;43.114;12.434;2023-05-03T08:31:41;99197.34;;;17.86;100.00
33280;BME280;20403;43.114;12.434;2023-05-03T08:34:06;99207.88;;;17.96;100.00
33280;BME280;20403;43.114;12.434;2023-05-03T08:36:34;99203.91;;;17.99;100.00
33280;BME280;20403;43.114;12.434;2023-05-03T08:39:00;99207.34;;;17.99;100.00
33280;BME280;20403;43.114;12.434;2023-05-03T08:41:30;99208.91;;;18.05;100.00
33280;BME280;20403;43.114;12.434;2023-05-03T08:43:56;99213.91;;;18.12;100.00
33280;BME280;20403;43.114;12.434;2023-05-03T08:46:23;99220.25;;;18.11;100.00
33280;BME280;20403;43.114;12.434;2023-05-03T08:48:51;99218.91;;;18.14;100.00
33280;BME280;20403;43.114;12.434;2023-05-03T08:51:17;99220.25;;;18.06;100.00
33280;BME280;20403;43.114;12.434;2023-05-03T08:53:44;99222.34;;;18.09;100.00
33280;BME280;20403;43.114;12.434;2023-05-03T08:56:11;99220.56;;;17.89;100.00
33280;BME280;20403;43.114;12.434;2023-05-03T08:58:40;99221.09;;;17.81;100.00
33280;BME280;20403;43.114;12.434;2023-05-03T09:01:07;99220.00;;;17.72;100.00
33280;BME280;20403;43.114;12.434;2023-05-03T09:03:33;99220.03;;;17.67;100.00
33280;BME280;20403;43.114;12.434;2023-05-03T09:05:59;99230.59;;;17.61;100.00
33280;BME280;20403;43.114;12.434;2023-05-03T09:08:28;99224.50;;;17.66;100.00
33280;BME280;20403;43.114;12.434;2023-05-03T09:10:54;99237.16;;;17.64;100.00
33280;BME280;20403;43.114;12.434;2023-05-03T09:13:21;99235.59;;;17.73;100.00
33280;BME280;20403;43.114;12.434;2023-05-03T09:15:53;99238.22;;;17.68;100.00
33280;BME280;20403;43.114;12.434;2023-05-03T09:18:19;99237.97;;;17.59;100.00
33280;BME280;20403;43.114;12.434;2023-05-03T09:20:46;99240.31;;;17.51;100.00
33280;BME280;20403;43.114;12.434;2023-05-03T09:23:29;99244.03;;;17.55;100.00
33280;BME280;20403;43.114;12.434;2023-05-03T09:25:56;99244.03;;;17.60;100.00
33280;BME280;20403;43.114;12.434;2023-05-03T09:28:21;99239.00;;;17.69;100.00
33280;BME280;20403;43.114;12.434;2023-05-03T09:30:47;99238.22;;;17.78;100.00
33280;BME280;20403;43.114;12.434;2023-05-03T09:33:13;99244.81;;;17.86;100.00
33280;BME280;20403;43.114;12.434;2023-05-03T09:35:57;99248.50;;;17.90;100.00
33280;BME280;20403;43.114;12.434;2023-05-03T09:38:30;99252.47;;;17.88;100.00
33280;BME280;20403;43.114;12.434;2023-05-03T09:40:57;99240.34;;;17.92;100.00
33280;BME280;20403;43.114;12.434;2023-05-03T09:43:22;99246.41;;;18.02;100.00
33280;BME280;20403;43.114;12.434;2023-05-03T09:45:48;99252.94;;;18.20;100.00
33280;BME280;20403;43.114;12.434;2023-05-03T09:48:14;99251.63;;;18.28;100.00
33280;BME280;20403;43.114;12.434;2023-05-03T09:50:42;99245.78;;;18.36;100.00
33280;BME280;20403;43.114;12.434;2023-05-03T09:53:08;99248.63;;;18.50;100.00
33280;BME280;20403;43.114;12.434;2023-05-03T09:55:38;99246.25;;;18.54;100.00
33280;BME280;20403;43.114;12.434;2023-05-03T09:58:04;99245.72;;;18.52;100.00
33280;BME280;20403;43.114;12.434;2023-05-03T10:03:00;99244.66;;;18.58;100.00
33280;BME280;20403;43.114;12.434;2023-05-03T10:05:30;99249.63;;;18.69;100.00
33280;BME280;20403;43.114;12.434;2023-05-03T10:07:59;99258.84;;;18.72;100.00
33280;BME280;20403;43.114;12.434;2023-05-03T10:10:27;99250.38;;;18.75;100.00
33280;BME280;20403;43.114;12.434;2023-05-03T10:12:55;99250.94;;;18.77;100.00
33280;BME280;20403;43.114;12.434;2023-05-03T10:15:22;99252.78;;;18.77;100.00
33280;BME280;20403;43.114;12.434;2023-05-03T10:17:50;99251.97;;;18.81;100.00
33280;BME280;20403;43.114;12.434;2023-05-03T10:20:38;99251.69;;;18.88;100.00
33280;BME280;20403;43.114;12.434;2023-05-03T10:25:34;99252.59;;;19.13;100.00
33280;BME280;20403;43.114;12.434;2023-05-03T10:28:01;99263.56;;;19.35;100.00
33280;BME280;20403;43.114;12.434;2023-05-03T10:30:35;99256.28;;;19.51;100.00
33280;BME280;20403;43.114;12.434;2023-05-03T10:35:40;99251.50;;;20.17;100.00
33280;BME280;20403;43.114;12.434;2023-05-03T10:38:16;99261.66;;;20.33;100.00
33280;BME280;20403;43.114;12.434;2023-05-03T10:40:42;99261.91;;;20.08;100.00
33280;BME280;20403;43.114;12.434;2023-05-03T10:45:57;99264.47;;;20.18;100.00
33280;BME280;20403;43.114;12.434;2023-05-03T10:48:22;99264.31;;;20.04;100.00
33280;BME280;20403;43.114;12.434;2023-05-03T10:50:48;99264.38;;;19.70;100.00
33280;BME280;20403;43.114;12.434;2023-05-03T10:53:47;99260.81;;;19.45;100.00
33280;BME280;20403;43.114;12.434;2023-05-03T10:56:13;99253.22;;;19.39;100.00
33280;BME280;20403;43.114;12.434;2023-05-03T12:49:55;99264.25;;;20.82;100.00
33280;BME280;20403;43.114;12.434;2023-05-03T12:52:20;99261.69;;;20.76;100.00
33280;BME280;20403;43.114;12.434;2023-05-03T12:54:47;99263.78;;;20.80;100.00
33280;BME280;20403;43.114;12.434;2023-05-03T12:57:13;99264.34;;;20.76;100.00
33280;BME280;20403;43.114;12.434;2023-05-03T12:59:39;99262.78;;;20.75;100.00
33280;BME280;20403;43.114;12.434;2023-05-03T13:02:10;99255.09;;;20.74;100.00
33280;BME280;20403;43.114;12.434;2023-05-03T13:04:36;99257.97;;;20.77;100.00
33280;BME280;20403;43.114;12.434;2023-05-03T13:07:02;99262.34;;;20.68;100.00
33280;BME280;20403;43.114;12.434;2023-05-03T13:09:27;99253.66;;;20.39;100.00
33280;BME280;20403;43.114;12.434;2023-05-03T13:11:53;99254.03;;;20.27;100.00
33280;BME280;20403;43.114;12.434;2023-05-03T13:14:20;99242.53;;;20.12;100.00
33280;BME280;20403;43.114;12.434;2023-05-03T13:16:46;99248.25;;;19.96;100.00
33280;BME280;20403;43.114;12.434;2023-05-03T13:19:13;99245.66;;;19.90;100.00
33280;BME280;20403;43.114;12.434;2023-05-03T13:21:39;99245.09;;;19.93;100.00
33280;BME280;20403;43.114;12.434;2023-05-03T13:24:05;99233.38;;;20.29;100.00
33280;BME280;20403;43.114;12.434;2023-05-03T13:26:31;99233.28;;;20.82;100.00
33280;BME280;20403;43.114;12.434;2023-05-03T13:28:58;99230.81;;;20.86;100.00
33280;BME280;20403;43.114;12.434;2023-05-03T13:31:23;99233.19;;;20.87;100.00
33280;BME280;20403;43.114;12.434;2023-05-03T13:33:51;99245.69;;;20.63;100.00
33280;BME280;20403;43.114;12.434;2023-05-03T13:36:27;99231.44;;;20.34;100.00
33280;BME280;20403;43.114;12.434;2023-05-03T13:38:53;99241.06;;;20.25;100.00
33280;BME280;20403;43.114;12.434;2023-05-03T13:41:19;99252.56;;;20.15;100.00
33280;BME280;20403;43.114;12.434;2023-05-03T13:43:45;99249.03;;;20.25;100.00
33280;BME280;20403;43.114;12.434;2023-05-03T13:46:11;99249.81;;;20.26;100.00
33280;BME280;20403;43.114;12.434;2023-05-03T13:48:37;99243.59;;;20.35;100.00
33280;BME280;20403;43.114;12.434;2023-05-03T13:51:07;99243.16;;;20.52;100.00
33280;BME280;20403;43.114;12.434;2023-05-03T13:53:33;99241.13;;;20.68;100.00
33280;BME280;20403;43.114;12.434;2023-05-03T13:55:58;99235.44;;;20.56;100.00
33280;BME280;20403;43.114;12.434;2023-05-03T13:58:23;99244.50;;;20.50;100.00
33280;BME280;20403;43.114;12.434;2023-05-03T14:00:49;99252.78;;;20.19;100.00
33280;BME280;20403;43.114;12.434;2023-05-03T14:03:14;99254.75;;;19.79;100.00
33280;BME280;20403;43.114;12.434;2023-05-03T14:05:40;99255.97;;;19.58;100.00
33280;BME280;20403;43.114;12.434;2023-05-03T14:08:05;99252.56;;;19.52;100.00
33280;BME280;20403;43.114;12.434;2023-05-03T14:10:33;99261.78;;;19.60;100.00
33280;BME280;20403;43.114;12.434;2023-05-03T14:12:59;99265.44;;;19.64;100.00
33280;BME280;20403;43.114;12.434;2023-05-03T14:15:24;99262.56;;;19.60;100.00
33280;BME280;20403;43.114;12.434;2023-05-03T14:17:50;99260.44;;;19.62;100.00
33280;BME280;20403;43.114;12.434;2023-05-03T14:20:16;99263.09;;;19.62;100.00
33280;BME280;20403;43.114;12.434;2023-05-03T14:22:42;99254.63;;;19.60;100.00
33280;BME280;20403;43.114;12.434;2023-05-03T14:25:08;99262.97;;;19.43;100.00
33280;BME280;20403;43.114;12.434;2023-05-03T14:27:33;99260.91;;;19.35;100.00
33280;BME280;20403;43.114;12.434;2023-05-03T14:29:59;99255.13;;;19.28;100.00
33280;BME280;20403;43.114;12.434;2023-05-03T14:32:24;99252.72;;;19.31;100.00
33280;BME280;20403;43.114;12.434;2023-05-03T14:34:49;99259.81;;;19.36;100.00
33280;BME280;20403;43.114;12.434;2023-05-03T14:37:15;99264.09;;;19.32;100.00
33280;BME280;20403;43.114;12.434;2023-05-03T14:39:41;99264.06;;;19.37;100.00
33280;BME280;20403;43.114;12.434;2023-05-03T14:42:09;99261.16;;;19.39;100.00
33280;BME280;20403;43.114;12.434;2023-05-03T14:44:35;99264.94;;;19.22;100.00